createdAt,value
2023-03-27T00:03:12.098Z,88
2023-03-27T00:06:37.252Z,88
2023-03-27T00:10:02.524Z,88
2023-03-27T00:13:27.809Z,88
2023-03-27T00:16:53.063Z,88
2023-03-27T00:20:18.246Z,88
2023-03-27T00:23:43.489Z,88
2023-03-27T00:27:08.732Z,88
2023-03-27T00:30:34.104Z,89
2023-03-27T00:33:59.192Z,88
2023-03-27T00:37:24.387Z,88
2023-03-27T00:40:49.648Z,88
2023-03-27T00:44:14.820Z,88
2023-03-27T00:47:40.104Z,87
2023-03-27T00:51:05.254Z,87
2023-03-27T00:54:30.464Z,88
2023-03-27T00:57:55.735Z,88
2023-03-27T01:01:20.964Z,88
2023-03-27T01:04:46.184Z,88
2023-03-27T01:08:11.360Z,88
2023-03-27T01:11:36.586Z,87
2023-03-27T01:15:01.790Z,87
2023-03-27T01:18:27.008Z,87
2023-03-27T01:21:52.236Z,87
2023-03-27T01:25:17.454Z,87
2023-03-27T01:28:42.686Z,88
2023-03-27T01:32:07.976Z,88
2023-03-27T01:35:33.271Z,88
2023-03-27T01:38:58.472Z,88
2023-03-27T01:42:23.664Z,87
2023-03-27T01:45:48.914Z,87
2023-03-27T01:49:14.177Z,87
2023-03-27T01:52:39.415Z,87
2023-03-27T01:56:04.676Z,88
2023-03-27T01:59:29.904Z,87
2023-03-27T02:02:55.236Z,87
2023-03-27T02:06:20.441Z,88
2023-03-27T02:09:45.715Z,88
2023-03-27T02:13:11.026Z,88
2023-03-27T02:16:36.310Z,88
2023-03-27T02:20:01.581Z,88
2023-03-27T02:23:26.881Z,88
2023-03-27T02:26:52.192Z,88
2023-03-27T02:30:17.506Z,88
2023-03-27T02:33:42.733Z,89
2023-03-27T02:37:08.029Z,89
2023-03-27T02:40:33.313Z,89
2023-03-27T02:43:58.594Z,88
2023-03-27T02:47:23.905Z,89
2023-03-27T02:50:49.197Z,90
2023-03-27T02:54:14.485Z,90
2023-03-27T02:57:39.797Z,90
2023-03-27T03:01:05.128Z,91
2023-03-27T03:04:30.455Z,91
2023-03-27T03:07:55.731Z,91
2023-03-27T03:11:21.052Z,92
2023-03-27T03:14:46.312Z,92
2023-03-27T03:18:11.572Z,92
2023-03-27T03:21:36.925Z,92
2023-03-27T03:25:02.115Z,91
2023-03-27T03:28:27.379Z,91
2023-03-27T03:31:52.654Z,91
2023-03-27T03:35:17.937Z,92
2023-03-27T03:38:43.568Z,91
2023-03-27T03:42:08.790Z,90
2023-03-27T03:45:34.088Z,90
2023-03-27T03:48:59.966Z,90
2023-03-27T03:52:25.250Z,90
2023-03-27T03:55:50.598Z,91
2023-03-27T03:59:15.936Z,91
2023-03-27T04:02:41.281Z,90
2023-03-27T04:06:06.547Z,90
2023-03-27T04:09:31.806Z,90
2023-03-27T04:12:57.145Z,90
2023-03-27T04:16:22.576Z,89
2023-03-27T04:19:48.116Z,89
2023-03-27T04:23:13.490Z,89
2023-03-27T04:26:38.930Z,88
2023-03-27T04:30:04.323Z,88
2023-03-27T04:33:30.573Z,89
2023-03-27T04:36:54.844Z,89
2023-03-27T04:40:20.121Z,88
2023-03-27T04:43:45.402Z,87
2023-03-27T04:47:10.836Z,88
2023-03-27T04:50:35.955Z,88
2023-03-27T04:54:01.131Z,88
2023-03-27T04:57:26.422Z,87
2023-03-27T05:00:51.763Z,87
2023-03-27T05:04:17.048Z,88
2023-03-27T05:07:42.281Z,88
2023-03-27T05:11:07.618Z,87
2023-03-27T05:14:32.926Z,87
2023-03-27T05:17:58.261Z,87
2023-03-27T05:21:23.582Z,87
2023-03-27T05:24:48.932Z,87
2023-03-27T05:28:14.259Z,87
2023-03-27T05:31:39.607Z,87
2023-03-27T05:35:04.990Z,86
2023-03-27T05:38:30.401Z,87
2023-03-27T05:41:55.649Z,86
2023-03-27T05:45:20.805Z,86
2023-03-27T05:48:45.965Z,87
2023-03-27T05:52:11.106Z,87
2023-03-27T05:55:36.299Z,86
2023-03-27T05:59:01.439Z,86
2023-03-27T06:02:26.664Z,87
2023-03-27T06:05:51.840Z,85
2023-03-27T06:09:17.004Z,84
2023-03-27T06:12:42.171Z,83
2023-03-27T06:16:07.338Z,84
2023-03-27T06:19:32.466Z,83
2023-03-27T06:22:57.641Z,83
2023-03-27T06:26:22.804Z,82
2023-03-27T06:29:47.997Z,81
2023-03-27T06:33:13.152Z,82
2023-03-27T06:36:38.299Z,81
2023-03-27T06:40:03.439Z,81
2023-03-27T06:43:28.609Z,81
2023-03-27T06:46:53.829Z,81
2023-03-27T06:50:18.925Z,81
2023-03-27T06:53:44.079Z,81
2023-03-27T06:57:09.300Z,81
2023-03-27T07:00:34.414Z,81
2023-03-27T07:03:59.573Z,80
2023-03-27T07:07:24.758Z,81
2023-03-27T07:10:56.719Z,81
2023-03-27T07:14:15.082Z,80
2023-03-27T07:17:48.482Z,80
2023-03-27T07:21:06.178Z,78
2023-03-27T07:24:31.296Z,78
2023-03-27T07:27:56.447Z,80
2023-03-27T07:31:32.997Z,79
2023-03-27T07:34:46.791Z,79
2023-03-27T07:38:12.017Z,79
2023-03-27T07:41:37.155Z,78
2023-03-27T07:45:04.115Z,78
2023-03-27T07:48:27.516Z,75
2023-03-27T07:51:52.687Z,77
2023-03-27T07:55:17.920Z,79
2023-03-27T07:58:43.090Z,77
2023-03-27T08:02:08.232Z,75
2023-03-27T08:05:33.386Z,76
2023-03-27T08:08:58.652Z,75
2023-03-27T08:12:23.741Z,74
2023-03-27T08:15:48.884Z,74
2023-03-27T08:19:14.121Z,75
2023-03-27T08:22:39.304Z,75
2023-03-27T08:26:04.511Z,76
2023-03-27T08:29:29.670Z,76
2023-03-27T08:32:54.841Z,75
2023-03-27T08:36:20.012Z,74
2023-03-27T08:39:45.186Z,73
2023-03-27T08:43:10.872Z,73
2023-03-27T08:46:36.088Z,74
2023-03-27T08:50:01.205Z,74
2023-03-27T08:53:28.427Z,74
2023-03-27T08:56:51.664Z,75
2023-03-27T09:00:16.777Z,75
2023-03-27T09:03:42.103Z,75
2023-03-27T09:07:07.244Z,77
2023-03-27T09:10:32.421Z,76
2023-03-27T09:13:57.564Z,76
2023-03-27T09:17:23.413Z,75
2023-03-27T09:20:48.607Z,74
2023-03-27T09:24:13.736Z,73
2023-03-27T09:27:38.912Z,74
2023-03-27T09:31:04.072Z,74
2023-03-27T09:34:29.261Z,74
2023-03-27T09:37:54.456Z,75
2023-03-27T09:41:19.665Z,72
2023-03-27T09:44:44.798Z,72
2023-03-27T09:48:09.976Z,74
2023-03-27T09:51:35.181Z,73
2023-03-27T09:55:00.746Z,74
2023-03-27T09:58:25.990Z,74
2023-03-27T10:01:51.323Z,73
2023-03-27T10:05:16.651Z,74
2023-03-27T10:08:41.976Z,71
2023-03-27T10:12:07.129Z,72
2023-03-27T10:15:32.290Z,73
2023-03-27T10:18:57.461Z,72
2023-03-27T10:22:22.657Z,71
2023-03-27T10:25:47.862Z,73
2023-03-27T10:29:13.111Z,72
2023-03-27T10:32:38.281Z,70
2023-03-27T10:36:03.457Z,69
2023-03-27T10:39:28.609Z,71
2023-03-27T10:42:53.768Z,70
2023-03-27T10:46:18.999Z,70
2023-03-27T10:49:44.130Z,71
2023-03-27T10:53:09.397Z,68
2023-03-27T10:56:34.529Z,67
2023-03-27T10:59:59.664Z,65
2023-03-27T11:03:24.916Z,68
2023-03-27T11:06:50.017Z,69
2023-03-27T11:10:15.162Z,72
2023-03-27T11:13:40.329Z,71
2023-03-27T11:17:05.552Z,71
2023-03-27T11:20:30.978Z,66
2023-03-27T11:23:56.113Z,67
2023-03-27T11:27:21.243Z,68
2023-03-27T11:30:46.449Z,69
2023-03-27T11:34:11.654Z,67
2023-03-27T11:37:36.818Z,66
2023-03-27T11:41:02.004Z,69
2023-03-27T11:44:27.138Z,68
2023-03-27T11:47:52.396Z,68
2023-03-27T11:51:17.568Z,67
2023-03-27T11:54:42.771Z,67
2023-03-27T11:58:07.920Z,67
2023-03-27T12:01:33.798Z,65
2023-03-27T12:04:58.957Z,66
2023-03-27T12:08:24.153Z,66
2023-03-27T12:11:49.343Z,66
2023-03-27T12:15:14.508Z,67
2023-03-27T12:18:41.336Z,69
2023-03-27T12:22:07.177Z,75
2023-03-27T12:25:30.050Z,77
2023-03-27T12:28:55.220Z,78
2023-03-27T12:32:20.369Z,81
2023-03-27T12:35:47.002Z,80
2023-03-27T12:39:10.747Z,73
2023-03-27T12:42:43.777Z,73
2023-03-27T12:46:01.347Z,74
2023-03-27T12:49:34.324Z,72
2023-03-27T12:52:51.635Z,70
2023-03-27T12:56:16.823Z,69
2023-03-27T12:59:42.002Z,67
2023-03-27T13:03:07.340Z,69
2023-03-27T13:06:32.347Z,74
2023-03-27T13:09:57.525Z,77
2023-03-27T13:13:22.698Z,79
2023-03-27T13:16:47.875Z,80
2023-03-27T13:20:13.149Z,79
2023-03-27T13:23:38.194Z,76
2023-03-27T13:27:03.340Z,78
2023-03-27T13:30:28.555Z,75
2023-03-27T13:33:53.736Z,76
2023-03-27T13:37:19.224Z,73
2023-03-27T13:40:44.435Z,72
2023-03-27T13:44:09.601Z,71
2023-03-27T13:47:34.834Z,72
2023-03-27T13:51:00.035Z,69
2023-03-27T13:54:25.295Z,67
2023-03-27T13:57:50.503Z,66
2023-03-27T14:01:15.717Z,67
2023-03-27T14:04:40.930Z,65
2023-03-27T14:08:06.160Z,66
2023-03-27T14:11:31.594Z,63
2023-03-27T14:14:56.543Z,63
2023-03-27T14:18:21.723Z,62
2023-03-27T14:21:46.910Z,61
2023-03-27T14:25:12.061Z,64
2023-03-27T14:28:37.268Z,63
2023-03-27T14:32:02.431Z,65
2023-03-27T14:35:27.606Z,62
2023-03-27T14:38:52.773Z,64
2023-03-27T14:42:18.104Z,62
2023-03-27T14:45:43.399Z,64
2023-03-27T14:49:08.425Z,63
2023-03-27T14:52:33.604Z,63
2023-03-27T14:55:58.870Z,61
2023-03-27T14:59:23.971Z,63
2023-03-27T15:02:49.161Z,63
2023-03-27T15:06:14.295Z,63
2023-03-27T15:40:47.862Z,71
2023-03-27T15:44:13.098Z,74
2023-03-27T15:47:38.470Z,74
2023-03-27T15:51:03.667Z,74
2023-03-27T15:54:28.928Z,71
2023-03-27T15:57:54.205Z,70
2023-03-27T16:01:20.083Z,71
2023-03-27T16:04:44.737Z,70
2023-03-27T16:08:10.006Z,70
2023-03-27T16:11:35.254Z,71
2023-03-27T16:15:00.665Z,73
2023-03-27T16:18:25.790Z,75
2023-03-27T16:21:51.707Z,77
2023-03-27T16:25:16.980Z,78
2023-03-27T16:28:42.298Z,80
2023-03-27T16:32:07.639Z,83
2023-03-27T16:35:32.886Z,86
2023-03-27T16:38:58.206Z,87
2023-03-27T16:42:25.775Z,88
2023-03-27T16:45:51.620Z,89
2023-03-27T16:49:16.900Z,88
2023-03-27T16:52:42.273Z,87
2023-03-27T16:56:07.532Z,87
2023-03-27T16:59:32.787Z,87
2023-03-27T17:02:58.050Z,86
2023-03-27T17:06:23.386Z,86
2023-03-27T17:09:48.650Z,85
2023-03-27T17:13:13.936Z,85
2023-03-27T17:16:39.290Z,86
2023-03-27T17:20:06.204Z,85
2023-03-27T17:23:29.942Z,85
2023-03-27T17:26:55.198Z,86
2023-03-27T17:30:30.769Z,87
2023-03-27T17:33:45.521Z,88
2023-03-27T17:37:10.663Z,89
2023-03-27T17:40:35.842Z,89
2023-03-27T17:44:00.954Z,87
2023-03-27T17:47:26.136Z,85
2023-03-27T17:51:01.467Z,85
2023-03-27T17:54:16.444Z,84
2023-03-27T17:57:41.622Z,85
2023-03-27T18:01:06.751Z,85
2023-03-27T18:04:31.899Z,85
2023-03-27T18:07:57.086Z,85
2023-03-27T18:11:22.301Z,85
2023-03-27T18:14:47.449Z,84
2023-03-27T18:18:12.575Z,83
2023-03-27T18:21:37.720Z,82
2023-03-27T18:25:02.863Z,82
2023-03-27T18:28:28.027Z,81
2023-03-27T18:31:53.263Z,81
2023-03-27T18:35:18.380Z,81
2023-03-27T18:38:43.548Z,81
2023-03-27T18:42:08.775Z,81
2023-03-27T18:45:33.875Z,81
2023-03-27T18:48:59.716Z,82
2023-03-27T18:52:24.263Z,82
2023-03-27T18:55:49.446Z,82
2023-03-27T18:59:14.588Z,82
2023-03-27T19:02:39.836Z,82
2023-03-27T19:06:05.047Z,81
2023-03-27T19:09:40.633Z,81
2023-03-27T19:12:55.236Z,82
2023-03-27T19:16:20.461Z,82
2023-03-27T19:19:46.560Z,82
2023-03-27T19:23:10.774Z,82
2023-03-27T19:26:35.893Z,83
2023-03-27T19:30:01.040Z,84
2023-03-27T19:33:26.206Z,84
2023-03-27T19:36:52.191Z,84
2023-03-27T19:40:16.549Z,84
2023-03-27T19:43:41.712Z,84
2023-03-27T19:47:06.921Z,84
2023-03-27T19:50:32.088Z,84
2023-03-27T19:53:57.259Z,85
2023-03-27T19:57:22.494Z,83
2023-03-27T20:00:47.563Z,83
2023-03-27T20:04:12.722Z,83
2023-03-27T20:07:37.905Z,83
2023-03-27T20:11:03.117Z,83
2023-03-27T20:14:28.278Z,83
2023-03-27T20:17:54.144Z,83
2023-03-27T20:21:19.256Z,83
2023-03-27T20:24:44.414Z,83
2023-03-27T20:28:09.589Z,83
2023-03-27T20:31:34.813Z,83
2023-03-27T20:35:00.810Z,82
2023-03-27T20:38:25.034Z,83
2023-03-27T20:41:50.181Z,82
2023-03-27T20:45:15.354Z,83
2023-03-27T20:48:40.617Z,83
2023-03-27T20:52:05.644Z,83
2023-03-27T20:55:34.489Z,83
2023-03-27T20:58:55.952Z,83
2023-03-27T21:02:21.207Z,83
2023-03-27T21:05:46.258Z,83
2023-03-27T21:09:11.412Z,83
2023-03-27T21:12:37.003Z,83
2023-03-27T21:16:02.193Z,83
2023-03-27T21:19:26.890Z,83
2023-03-27T21:22:52.026Z,83
2023-03-27T21:26:17.139Z,83
2023-03-27T21:29:42.295Z,83
2023-03-27T21:33:07.500Z,83
2023-03-27T21:36:32.661Z,83
2023-03-27T21:39:57.757Z,83
2023-03-27T21:43:22.871Z,83
2023-03-27T21:46:48.044Z,83
2023-03-27T21:50:13.198Z,83
2023-03-27T21:53:38.365Z,83
2023-03-27T21:57:03.571Z,83
2023-03-27T22:00:28.636Z,83
2023-03-27T22:03:53.781Z,83
2023-03-27T22:07:18.941Z,83
2023-03-27T22:10:44.094Z,83
2023-03-27T22:14:09.264Z,82
2023-03-27T22:17:34.425Z,83
2023-03-27T22:20:59.573Z,82
2023-03-27T22:24:24.706Z,82
2023-03-27T22:27:49.852Z,82
2023-03-27T22:31:15.055Z,82
2023-03-27T22:34:40.142Z,82
2023-03-27T22:38:05.282Z,82
2023-03-27T22:41:30.455Z,82
2023-03-27T22:44:55.611Z,82
2023-03-27T22:48:20.810Z,82
2023-03-27T22:51:45.947Z,82
2023-03-27T22:55:11.116Z,82
2023-03-27T22:58:36.270Z,82
2023-03-27T23:02:01.499Z,82
2023-03-27T23:05:26.581Z,82
2023-03-27T23:08:51.715Z,81
2023-03-27T23:12:16.864Z,82
2023-03-27T23:15:42.004Z,82
2023-03-27T23:19:07.140Z,82
2023-03-27T23:22:32.323Z,82
2023-03-27T23:25:57.600Z,82
2023-03-27T23:29:22.618Z,82
2023-03-27T23:32:47.791Z,82
2023-03-27T23:36:12.956Z,82
2023-03-27T23:39:38.100Z,82
2023-03-27T23:43:03.233Z,82
2023-03-27T23:46:28.402Z,82
2023-03-27T23:49:53.499Z,83
2023-03-27T23:53:18.640Z,82
2023-03-27T23:56:43.856Z,82
